createdAt,value
2022-09-13T00:02:52.069Z,1.92
2022-09-13T00:07:54.523Z,1.75
2022-09-13T00:12:55.935Z,2.30
2022-09-13T00:17:57.182Z,2.25
2022-09-13T00:22:58.265Z,1.98
2022-09-13T00:27:59.358Z,2.28
2022-09-13T00:33:03.767Z,2.30
2022-09-13T00:38:05.327Z,2.20
2022-09-13T00:43:16.365Z,2.25
2022-09-13T00:48:21.905Z,1.95
2022-09-13T00:53:29.742Z,2.28
2022-09-13T00:58:36.177Z,1.75
2022-09-13T01:03:38.578Z,1.98
2022-09-13T01:08:42.718Z,2.10
2022-09-13T01:13:44.969Z,2.03
2022-09-13T01:18:46.089Z,2.08
2022-09-13T01:24:21.378Z,2.10
2022-09-13T01:29:53.615Z,2.10
2022-09-13T01:35:03.791Z,1.88
2022-09-13T01:40:32.033Z,2.28
2022-09-13T01:45:40.150Z,2.15
2022-09-13T01:50:47.002Z,2.38
2022-09-13T01:55:58.774Z,2.50
2022-09-13T02:01:17.430Z,2.53
2022-09-13T02:06:23.202Z,2.00
2022-09-13T02:11:24.558Z,2.70
2022-09-13T02:16:41.193Z,2.22
2022-09-13T02:21:45.481Z,2.25
2022-09-13T02:26:52.082Z,2.13
2022-09-13T02:32:05.266Z,2.33
2022-09-13T02:37:08.112Z,2.08
2022-09-13T02:42:21.045Z,2.50
2022-09-13T02:47:48.863Z,2.10
2022-09-13T02:52:54.303Z,2.13
2022-09-13T02:58:23.613Z,2.20
2022-09-13T03:03:28.181Z,2.10
2022-09-13T03:08:29.912Z,2.28
2022-09-13T03:13:56.539Z,2.05
2022-09-13T03:18:57.773Z,3.28
2022-09-13T03:24:12.286Z,2.97
2022-09-13T03:29:39.664Z,2.80
2022-09-13T03:35:05.187Z,2.45
2022-09-13T03:40:13.861Z,2.53
2022-09-13T03:45:18.211Z,2.40
2022-09-13T03:50:22.938Z,2.13
2022-09-13T03:55:25.207Z,2.47
2022-09-13T04:00:26.757Z,2.50
2022-09-13T04:05:27.983Z,3.08
2022-09-13T04:10:30.990Z,2.80
2022-09-13T04:15:32.307Z,2.30
2022-09-13T04:20:35.116Z,2.47
2022-09-13T04:25:38.549Z,2.40
2022-09-13T04:30:47.129Z,2.63
2022-09-13T04:35:53.742Z,2.50
2022-09-13T04:40:55.422Z,2.28
2022-09-13T04:46:00.473Z,2.70
2022-09-13T04:51:03.850Z,2.58
2022-09-13T04:56:05.754Z,2.40
2022-09-13T05:01:09.511Z,2.50
2022-09-13T05:06:18.938Z,2.55
2022-09-13T05:11:22.166Z,2.80
2022-09-13T05:16:25.287Z,3.08
2022-09-13T05:21:30.206Z,2.80
2022-09-13T05:26:31.566Z,3.30
2022-09-13T05:31:35.926Z,3.00
2022-09-13T05:36:37.473Z,3.30
2022-09-13T05:41:38.513Z,2.92
2022-09-13T05:46:40.193Z,3.20
2022-09-13T05:51:41.696Z,2.60
2022-09-13T05:56:42.786Z,2.83
2022-09-13T06:01:44.508Z,3.10
2022-09-13T06:06:45.629Z,3.00
2022-09-13T06:11:46.678Z,3.35
2022-09-13T06:16:47.870Z,3.55
2022-09-13T06:21:48.967Z,3.50
2022-09-13T06:26:50.006Z,3.45
2022-09-13T06:31:51.128Z,3.35
2022-09-13T06:36:52.217Z,3.95
2022-09-13T06:41:53.445Z,3.78
2022-09-13T06:47:01.874Z,3.80
2022-09-13T06:52:03.080Z,3.58
2022-09-13T06:57:04.349Z,3.88
2022-09-13T07:02:05.627Z,3.95
2022-09-13T07:07:06.870Z,3.75
2022-09-13T07:12:07.951Z,4.28
2022-09-13T07:17:09.069Z,4.03
2022-09-13T07:22:10.207Z,3.50
2022-09-13T07:27:12.150Z,3.08
2022-09-13T07:32:13.766Z,3.17
2022-09-13T07:37:14.974Z,3.58
2022-09-13T07:42:16.091Z,3.42
2022-09-13T07:47:17.646Z,4.18
2022-09-13T07:52:18.765Z,3.95
2022-09-13T07:57:19.861Z,3.40
2022-09-13T08:02:20.967Z,3.50
2022-09-13T08:07:22.378Z,4.65
2022-09-13T08:12:23.645Z,4.53
2022-09-13T08:17:24.745Z,4.13
2022-09-13T08:22:25.781Z,4.47
2022-09-13T08:27:28.022Z,4.45
2022-09-13T08:32:29.386Z,4.13
2022-09-13T08:37:33.529Z,4.93
2022-09-13T08:42:58.739Z,4.88
2022-09-13T08:48:11.256Z,4.70
2022-09-13T08:53:25.557Z,4.80
2022-09-13T08:58:55.029Z,5.05
2022-09-13T09:04:29.292Z,5.60
2022-09-13T09:09:40.062Z,5.30
2022-09-13T09:14:45.994Z,5.10
2022-09-13T09:20:00.042Z,6.78
2022-09-13T09:25:01.269Z,5.80
2022-09-13T09:30:03.443Z,4.70
2022-09-13T09:35:36.101Z,5.15
2022-09-13T09:40:37.750Z,5.97
2022-09-13T09:45:41.233Z,4.63
2022-09-13T09:50:48.406Z,4.80
2022-09-13T09:55:59.830Z,6.00
2022-09-13T10:01:01.191Z,4.75
2022-09-13T10:06:09.025Z,5.35
2022-09-13T10:11:10.242Z,5.30
2022-09-13T10:16:29.519Z,5.95
2022-09-13T10:21:30.769Z,6.50
2022-09-13T10:26:33.349Z,7.60
2022-09-13T10:31:38.106Z,6.90
2022-09-13T10:36:55.398Z,6.60
2022-09-13T10:42:02.125Z,6.18
2022-09-13T10:47:12.627Z,6.10
2022-09-13T10:52:34.859Z,5.53
2022-09-13T10:57:37.211Z,6.05
2022-09-13T11:02:44.363Z,5.28
2022-09-13T11:07:48.611Z,5.72
2022-09-13T11:13:00.334Z,5.57
2022-09-13T11:18:26.846Z,4.88
2022-09-13T11:23:40.690Z,4.40
2022-09-13T11:29:01.488Z,3.95
2022-09-13T11:34:35.997Z,3.83
2022-09-13T11:39:51.707Z,4.88
2022-09-13T11:45:08.882Z,3.45
2022-09-13T11:50:13.588Z,3.30
2022-09-13T11:55:31.033Z,3.78
2022-09-13T12:00:46.386Z,3.65
2022-09-13T12:05:53.130Z,2.65
2022-09-13T12:10:57.147Z,2.15
2022-09-13T12:16:08.043Z,2.97
2022-09-13T12:21:18.560Z,3.45
2022-09-13T12:26:35.049Z,2.97
2022-09-13T12:31:36.240Z,3.38
2022-09-13T12:36:57.891Z,2.90
2022-09-13T12:42:20.910Z,3.90
2022-09-13T12:48:05.765Z,3.40
2022-09-13T12:53:46.245Z,3.75
2022-09-13T12:59:03.086Z,4.00
2022-09-13T13:04:28.050Z,3.63
2022-09-13T13:09:33.590Z,4.45
2022-09-13T13:14:37.657Z,4.40
2022-09-13T13:19:39.274Z,4.13
2022-09-13T13:24:46.059Z,4.18
2022-09-13T13:30:25.474Z,3.78
2022-09-13T13:35:31.590Z,4.38
2022-09-13T13:40:32.979Z,4.65
2022-09-13T13:45:34.216Z,4.82
2022-09-13T13:50:55.530Z,4.22
2022-09-13T13:56:20.931Z,4.70
2022-09-13T14:01:27.742Z,4.18
2022-09-13T14:06:53.953Z,4.20
2022-09-13T14:12:04.534Z,4.15
2022-09-13T14:17:43.007Z,5.28
2022-09-13T14:22:44.340Z,4.68
2022-09-13T14:27:47.784Z,4.63
2022-09-13T14:32:52.330Z,4.03
2022-09-13T14:37:55.322Z,3.40
2022-09-13T14:42:56.478Z,3.22
2022-09-13T14:48:22.266Z,3.40
2022-09-13T14:53:30.522Z,3.90
2022-09-13T14:58:48.371Z,3.88
2022-09-13T15:03:50.980Z,5.20
2022-09-13T15:09:00.293Z,6.35
2022-09-13T15:14:26.269Z,7.18
2022-09-13T15:19:31.294Z,7.70
2022-09-13T15:24:33.782Z,7.60
2022-09-13T15:29:36.812Z,8.15
2022-09-13T15:34:46.036Z,8.88
2022-09-13T15:39:50.938Z,9.40
2022-09-13T15:44:52.099Z,9.50
2022-09-13T15:49:53.442Z,9.25
2022-09-13T15:54:54.787Z,10.05
2022-09-13T15:59:58.867Z,9.95
2022-09-13T16:05:11.430Z,9.90
2022-09-13T16:10:19.561Z,9.23
2022-09-13T16:15:20.768Z,10.20
2022-09-13T16:20:22.017Z,10.20
2022-09-13T16:25:23.303Z,9.70
2022-09-13T16:30:27.047Z,9.85
2022-09-13T16:35:32.146Z,9.52
2022-09-13T16:40:33.516Z,8.73
2022-09-13T16:45:38.416Z,9.82
2022-09-13T16:50:40.362Z,8.70
2022-09-13T16:55:42.205Z,8.95
2022-09-13T17:00:43.455Z,10.30
2022-09-13T17:05:56.477Z,11.05
2022-09-13T17:10:57.779Z,11.63
2022-09-13T17:15:58.897Z,10.68
2022-09-13T17:21:00.109Z,12.13
2022-09-13T17:26:01.346Z,12.30
2022-09-13T17:31:02.940Z,12.10
2022-09-13T17:36:07.591Z,13.07
2022-09-13T17:41:11.698Z,10.98
2022-09-13T17:46:21.454Z,10.85
2022-09-13T17:51:24.989Z,11.20
2022-09-13T17:56:45.901Z,12.52
2022-09-13T18:01:52.597Z,12.48
2022-09-13T18:06:54.458Z,12.63
2022-09-13T18:11:56.004Z,11.13
2022-09-13T18:16:57.504Z,13.05
2022-09-13T18:22:00.763Z,13.65
2022-09-13T18:27:02.657Z,13.05
2022-09-13T18:32:03.963Z,14.27
2022-09-13T18:37:05.209Z,13.63
2022-09-13T18:42:06.793Z,13.45
2022-09-13T18:47:12.151Z,11.98
2022-09-13T18:52:13.417Z,10.48
2022-09-13T18:57:14.660Z,10.38
2022-09-13T19:02:16.069Z,10.52
2022-09-13T19:07:17.173Z,10.57
2022-09-13T19:12:18.416Z,10.13
2022-09-13T19:17:19.473Z,11.07
2022-09-13T19:22:20.678Z,10.65
2022-09-13T19:27:21.954Z,10.45
2022-09-13T19:32:23.221Z,10.30
2022-09-13T19:37:24.587Z,10.90
2022-09-13T19:42:25.842Z,10.52
2022-09-13T19:48:12.931Z,11.50
2022-09-13T19:52:49.416Z,11.75
2022-09-13T19:57:50.499Z,11.82
2022-09-13T20:02:51.546Z,13.05
2022-09-13T20:07:52.574Z,13.05
2022-09-13T20:12:54.487Z,13.23
2022-09-13T20:17:56.111Z,11.98
2022-09-13T20:22:57.210Z,12.80
2022-09-13T20:27:58.654Z,13.48
2022-09-13T20:32:59.698Z,13.02
2022-09-13T20:38:00.794Z,12.77
2022-09-13T20:43:02.173Z,14.18
2022-09-13T20:48:03.538Z,15.45
2022-09-13T20:53:04.583Z,15.65
2022-09-13T20:58:05.629Z,18.83
2022-09-13T21:03:07.442Z,19.70
2022-09-13T21:08:36.226Z,20.60
2022-09-13T21:13:41.770Z,23.60
2022-09-13T21:18:43.718Z,19.42
2022-09-13T21:23:45.863Z,18.98
2022-09-13T21:28:47.241Z,13.43
2022-09-13T21:33:55.984Z,11.20
2022-09-13T21:38:57.369Z,11.43
2022-09-13T21:43:59.077Z,10.52
2022-09-13T21:49:02.831Z,10.98
2022-09-13T21:54:06.747Z,9.50
2022-09-13T21:59:13.818Z,10.05
2022-09-13T22:04:26.629Z,10.00
2022-09-13T22:09:27.850Z,10.13
2022-09-13T22:14:28.902Z,9.63
2022-09-13T22:19:30.967Z,10.25
2022-09-13T22:24:34.983Z,9.65
2022-09-13T22:29:36.245Z,9.55
2022-09-13T22:34:37.490Z,9.15
2022-09-13T22:39:38.589Z,8.32
2022-09-13T22:44:39.660Z,8.70
2022-09-13T22:49:40.761Z,9.82
2022-09-13T22:54:42.035Z,9.75
2022-09-13T22:59:43.099Z,8.57
2022-09-13T23:04:44.426Z,8.82
2022-09-13T23:09:45.474Z,8.50
2022-09-13T23:14:46.525Z,9.75
2022-09-13T23:19:47.610Z,8.88
2022-09-13T23:24:48.794Z,8.82
2022-09-13T23:29:49.850Z,9.27
2022-09-13T23:34:51.054Z,8.60
2022-09-13T23:39:52.494Z,9.55
2022-09-13T23:44:53.933Z,8.88
2022-09-13T23:49:55.189Z,8.77
2022-09-13T23:54:56.418Z,8.13
2022-09-13T23:59:57.582Z,8.80
